createdAt,value
2023-01-12T00:02:23.529Z,8.60
2023-01-12T00:04:51.823Z,8.70
2023-01-12T00:07:20.434Z,8.70
2023-01-12T00:09:48.618Z,8.70
2023-01-12T00:12:16.887Z,8.80
2023-01-12T00:14:45.005Z,8.80
2023-01-12T00:17:17.256Z,8.80
2023-01-12T00:19:45.339Z,8.80
2023-01-12T00:22:17.668Z,8.80
2023-01-12T00:24:49.476Z,8.90
2023-01-12T00:27:20.419Z,8.80
2023-01-12T00:29:49.011Z,8.80
2023-01-12T00:32:21.062Z,8.90
2023-01-12T00:34:49.492Z,8.90
2023-01-12T00:37:19.662Z,8.90
2023-01-12T00:40:00.867Z,8.90
2023-01-12T00:42:47.058Z,8.90
2023-01-12T00:45:24.574Z,8.90
2023-01-12T00:47:54.625Z,8.90
2023-01-12T00:50:23.201Z,8.90
2023-01-12T00:52:51.414Z,9.00
2023-01-12T00:55:19.718Z,9.00
2023-01-12T00:57:48.086Z,8.90
2023-01-12T01:00:18.164Z,9.00
2023-01-12T01:02:46.318Z,9.00
2023-01-12T01:05:17.737Z,8.90
2023-01-12T01:07:47.245Z,9.00
2023-01-12T01:10:16.931Z,8.90
2023-01-12T01:12:45.478Z,8.90
2023-01-12T01:15:13.898Z,8.90
2023-01-12T01:17:42.041Z,8.90
2023-01-12T01:20:12.604Z,8.90
2023-01-12T01:22:42.043Z,8.90
2023-01-12T01:25:11.273Z,8.90
2023-01-12T01:27:39.393Z,8.90
2023-01-12T01:30:09.710Z,9.00
2023-01-12T01:32:37.774Z,8.90
2023-01-12T01:35:06.937Z,8.90
2023-01-12T01:37:35.335Z,8.90
2023-01-12T01:40:05.330Z,8.90
2023-01-12T01:42:33.547Z,8.80
2023-01-12T01:45:05.704Z,8.80
2023-01-12T01:47:44.295Z,8.70
2023-01-12T01:50:20.662Z,8.60
2023-01-12T01:52:54.400Z,8.50
2023-01-12T01:55:27.780Z,8.50
2023-01-12T01:58:02.217Z,8.40
2023-01-12T02:00:30.576Z,8.40
2023-01-12T02:03:01.334Z,8.30
2023-01-12T02:05:30.024Z,8.30
2023-01-12T02:08:04.107Z,8.30
2023-01-12T02:10:33.755Z,8.30
2023-01-12T02:13:19.368Z,8.20
2023-01-12T02:16:17.763Z,8.20
2023-01-12T02:19:00.332Z,8.20
2023-01-12T02:22:21.872Z,8.10
2023-01-12T02:25:36.003Z,8.10
2023-01-12T02:28:54.671Z,8.20
2023-01-12T02:31:55.352Z,8.10
2023-01-12T02:34:34.710Z,8.10
2023-01-12T02:37:15.845Z,8.20
2023-01-12T02:39:58.555Z,8.20
2023-01-12T02:42:47.513Z,8.30
2023-01-12T02:45:34.086Z,8.30
2023-01-12T02:48:13.907Z,8.30
2023-01-12T02:50:52.140Z,8.40
2023-01-12T02:53:28.724Z,8.40
2023-01-12T02:56:00.120Z,8.40
2023-01-12T02:58:31.029Z,8.30
2023-01-12T03:01:02.194Z,8.30
2023-01-12T03:03:32.673Z,8.40
2023-01-12T03:06:01.736Z,8.40
2023-01-12T03:08:33.783Z,8.30
2023-01-12T03:11:13.826Z,8.30
2023-01-12T03:13:49.683Z,8.30
2023-01-12T03:16:22.470Z,8.30
2023-01-12T03:18:59.413Z,8.30
2023-01-12T03:21:35.942Z,8.20
2023-01-12T03:24:09.515Z,8.20
2023-01-12T03:26:42.658Z,8.10
2023-01-12T03:29:18.272Z,8.20
2023-01-12T03:31:47.617Z,8.20
2023-01-12T03:34:17.140Z,8.20
2023-01-12T03:36:57.808Z,8.20
2023-01-12T03:39:46.690Z,8.30
2023-01-12T03:42:22.243Z,8.30
2023-01-12T03:45:02.215Z,8.30
2023-01-12T03:47:34.801Z,8.30
2023-01-12T03:50:11.221Z,8.30
2023-01-12T03:52:43.331Z,8.30
2023-01-12T03:55:18.579Z,8.30
2023-01-12T03:57:48.646Z,8.40
2023-01-12T04:00:21.585Z,8.40
2023-01-12T04:02:49.601Z,8.30
2023-01-12T04:05:19.197Z,8.30
2023-01-12T04:07:47.204Z,8.20
2023-01-12T04:10:15.257Z,8.20
2023-01-12T04:12:43.204Z,8.30
2023-01-12T04:15:12.132Z,8.30
2023-01-12T04:17:40.348Z,8.30
2023-01-12T04:20:10.909Z,8.20
2023-01-12T04:22:45.369Z,8.30
2023-01-12T04:25:18.605Z,8.30
2023-01-12T04:27:49.656Z,8.30
2023-01-12T04:30:21.257Z,8.40
2023-01-12T04:32:49.581Z,8.40
2023-01-12T04:35:18.556Z,8.40
2023-01-12T04:37:48.939Z,8.50
2023-01-12T04:40:18.381Z,8.50
2023-01-12T04:43:07.484Z,8.50
2023-01-12T04:45:39.818Z,8.70
2023-01-12T04:48:11.325Z,8.60
2023-01-12T04:50:44.314Z,8.60
2023-01-12T04:53:14.810Z,8.70
2023-01-12T04:55:44.859Z,8.70
2023-01-12T04:58:13.071Z,8.80
2023-01-12T05:00:41.175Z,8.70
2023-01-12T05:03:12.817Z,8.70
2023-01-12T05:05:41.435Z,8.80
2023-01-12T05:08:28.854Z,8.80
2023-01-12T05:11:01.117Z,8.90
2023-01-12T05:13:31.439Z,8.90
2023-01-12T05:16:11.411Z,9.00
2023-01-12T05:18:39.627Z,8.90
2023-01-12T05:21:08.667Z,9.00
2023-01-12T05:23:36.955Z,8.90
2023-01-12T05:26:08.401Z,9.00
2023-01-12T05:28:38.436Z,9.00
2023-01-12T05:31:13.414Z,9.00
2023-01-12T05:33:43.612Z,9.00
2023-01-12T05:36:15.853Z,9.10
2023-01-12T05:38:47.125Z,9.10
2023-01-12T05:41:19.122Z,9.10
2023-01-12T05:43:50.846Z,9.10
2023-01-12T05:46:22.145Z,9.10
2023-01-12T05:48:51.986Z,9.10
2023-01-12T05:51:20.875Z,9.10
2023-01-12T05:53:49.645Z,9.00
2023-01-12T05:56:23.434Z,9.10
2023-01-12T05:58:53.431Z,9.10
2023-01-12T06:01:22.876Z,9.10
2023-01-12T06:03:52.577Z,9.10
2023-01-12T06:06:23.179Z,9.00
2023-01-12T06:08:52.709Z,8.90
2023-01-12T06:11:40.340Z,8.80
2023-01-12T06:14:09.618Z,8.80
2023-01-12T06:16:40.014Z,8.90
2023-01-12T06:19:10.165Z,8.90
2023-01-12T06:21:40.664Z,8.90
2023-01-12T06:24:09.996Z,8.90
2023-01-12T06:26:39.588Z,9.00
2023-01-12T06:29:07.893Z,9.00
2023-01-12T06:31:37.172Z,9.00
2023-01-12T06:34:07.817Z,9.00
2023-01-12T06:36:36.737Z,8.90
2023-01-12T06:39:05.691Z,8.90
2023-01-12T06:41:53.379Z,8.90
2023-01-12T06:44:22.815Z,8.90
2023-01-12T06:46:50.865Z,8.80
2023-01-12T06:49:19.746Z,8.80
2023-01-12T06:51:51.425Z,8.80
2023-01-12T06:54:19.648Z,8.90
2023-01-12T06:56:48.111Z,9.00
2023-01-12T06:59:16.223Z,8.90
2023-01-12T07:01:45.935Z,8.90
2023-01-12T07:04:14.487Z,8.90
2023-01-12T07:06:42.580Z,8.90
2023-01-12T07:09:10.609Z,8.90
2023-01-12T07:11:38.715Z,9.00
2023-01-12T07:14:09.146Z,9.00
2023-01-12T07:16:37.432Z,9.10
2023-01-12T07:19:06.856Z,9.20
2023-01-12T07:21:34.963Z,9.20
2023-01-12T07:24:03.313Z,9.30
2023-01-12T07:26:31.469Z,9.30
2023-01-12T07:28:59.590Z,9.20
2023-01-12T07:31:28.043Z,9.20
2023-01-12T07:33:56.684Z,9.10
2023-01-12T07:36:26.810Z,9.20
2023-01-12T07:38:55.487Z,9.30
2023-01-12T07:41:41.304Z,9.20
2023-01-12T07:44:09.790Z,9.20
2023-01-12T07:46:38.189Z,9.20
2023-01-12T07:49:06.376Z,9.30
2023-01-12T07:51:36.013Z,9.30
2023-01-12T07:54:04.155Z,9.20
2023-01-12T07:56:32.252Z,9.20
2023-01-12T07:59:00.479Z,9.20
2023-01-12T08:01:28.755Z,9.10
2023-01-12T08:03:56.925Z,9.20
2023-01-12T08:06:25.087Z,9.20
2023-01-12T08:08:55.755Z,9.20
2023-01-12T08:11:24.887Z,9.30
2023-01-12T08:13:56.409Z,9.30
2023-01-12T08:16:31.268Z,9.40
2023-01-12T08:19:04.765Z,9.50
2023-01-12T08:21:45.929Z,9.60
2023-01-12T08:24:20.465Z,9.60
2023-01-12T08:26:56.251Z,9.50
2023-01-12T08:29:32.041Z,9.50
2023-01-12T08:32:04.857Z,9.50
2023-01-12T08:34:34.375Z,9.40
2023-01-12T08:37:09.350Z,9.50
2023-01-12T08:39:39.479Z,9.50
2023-01-12T08:42:07.611Z,9.50
2023-01-12T08:44:36.475Z,9.50
2023-01-12T08:47:06.846Z,9.50
2023-01-12T08:49:35.497Z,9.50
2023-01-12T08:52:03.705Z,9.50
2023-01-12T08:54:31.961Z,9.60
2023-01-12T08:57:01.430Z,9.70
2023-01-12T08:59:29.605Z,9.70
2023-01-12T09:01:57.849Z,9.80
2023-01-12T09:04:26.202Z,9.80
2023-01-12T09:06:54.268Z,9.80
2023-01-12T09:09:22.781Z,9.70
2023-01-12T09:11:51.450Z,9.70
2023-01-12T09:14:20.963Z,9.70
2023-01-12T09:16:49.673Z,9.60
2023-01-12T09:19:17.793Z,9.60
2023-01-12T09:21:46.360Z,9.50
2023-01-12T09:24:15.543Z,9.50
2023-01-12T09:26:47.687Z,9.50
2023-01-12T09:29:16.244Z,9.50
2023-01-12T09:31:47.014Z,9.60
2023-01-12T09:34:15.292Z,9.70
2023-01-12T09:36:44.685Z,9.70
2023-01-12T09:39:27.401Z,9.80
2023-01-12T09:42:14.833Z,9.80
2023-01-12T09:45:03.655Z,9.90
2023-01-12T09:47:39.656Z,9.90
2023-01-12T09:50:14.550Z,9.90
2023-01-12T09:52:49.527Z,9.90
2023-01-12T09:55:21.545Z,10.00
2023-01-12T09:58:32.081Z,9.90
2023-01-12T10:01:14.598Z,9.90
2023-01-12T10:03:47.413Z,9.90
2023-01-12T10:06:18.807Z,9.90
2023-01-12T10:08:52.851Z,10.00
2023-01-12T10:11:34.607Z,10.10
2023-01-12T10:14:24.791Z,10.20
2023-01-12T10:17:17.425Z,10.20
2023-01-12T10:19:59.303Z,10.20
2023-01-12T10:22:40.759Z,10.10
2023-01-12T10:25:36.523Z,10.10
2023-01-12T10:28:15.610Z,10.10
2023-01-12T10:30:44.909Z,10.10
2023-01-12T10:33:22.249Z,10.00
2023-01-12T10:35:57.440Z,9.90
2023-01-12T10:38:31.516Z,9.80
2023-01-12T10:41:16.978Z,9.70
2023-01-12T10:43:47.776Z,9.70
2023-01-12T10:46:20.598Z,9.70
2023-01-12T10:48:51.761Z,9.80
2023-01-12T10:51:28.698Z,9.90
2023-01-12T10:54:03.593Z,9.90
2023-01-12T10:56:36.667Z,9.90
2023-01-12T10:59:16.863Z,10.00
2023-01-12T11:01:48.736Z,9.90
2023-01-12T11:04:21.610Z,9.90
2023-01-12T11:07:06.188Z,9.90
2023-01-12T11:09:34.330Z,9.80
2023-01-12T11:12:05.557Z,9.80
2023-01-12T11:14:37.958Z,9.80
2023-01-12T11:17:30.309Z,9.80
2023-01-12T11:20:02.171Z,9.80
2023-01-12T11:22:38.343Z,9.80
2023-01-12T11:25:14.804Z,9.90
2023-01-12T11:27:49.501Z,9.80
2023-01-12T11:30:25.903Z,9.90
2023-01-12T11:33:04.268Z,9.90
2023-01-12T11:35:40.479Z,9.80
2023-01-12T11:38:17.978Z,9.80
2023-01-12T11:40:49.019Z,9.80
2023-01-12T11:43:55.522Z,9.90
2023-01-12T11:46:30.420Z,9.90
2023-01-12T11:49:15.728Z,9.80
2023-01-12T11:51:44.558Z,9.90
2023-01-12T11:54:18.913Z,9.80
2023-01-12T11:57:27.033Z,9.80
2023-01-12T12:00:19.121Z,9.90
2023-01-12T12:03:06.183Z,10.00
2023-01-12T12:05:45.367Z,10.10
2023-01-12T12:08:30.954Z,10.10
2023-01-12T12:11:12.213Z,10.00
2023-01-12T12:13:58.662Z,9.90
2023-01-12T12:16:41.777Z,10.00
2023-01-12T12:19:29.421Z,10.00
2023-01-12T12:22:07.338Z,10.00
2023-01-12T12:24:58.897Z,10.10
2023-01-12T12:27:53.757Z,10.10
2023-01-12T12:30:57.884Z,10.10
2023-01-12T12:33:42.759Z,10.10
2023-01-12T12:36:24.028Z,10.20
2023-01-12T12:39:34.956Z,10.20
2023-01-12T12:42:38.988Z,10.30
2023-01-12T12:45:24.124Z,10.30
2023-01-12T12:48:02.712Z,10.30
2023-01-12T12:50:36.048Z,10.30
2023-01-12T12:53:27.116Z,10.30
2023-01-12T12:55:59.717Z,10.20
2023-01-12T12:58:45.786Z,10.10
2023-01-12T13:01:57.194Z,10.00
2023-01-12T13:05:04.835Z,9.90
2023-01-12T13:07:42.431Z,10.00
2023-01-12T13:10:30.455Z,10.10
2023-01-12T13:13:04.120Z,10.10
2023-01-12T13:15:37.631Z,10.00
2023-01-12T13:18:44.055Z,10.00
2023-01-12T13:21:32.917Z,10.00
2023-01-12T13:24:30.309Z,10.10
2023-01-12T13:27:00.705Z,10.10
2023-01-12T13:29:47.823Z,10.20
2023-01-12T13:32:57.517Z,10.20
2023-01-12T13:36:10.219Z,10.30
2023-01-12T13:39:07.992Z,10.40
2023-01-12T13:41:55.920Z,10.40
2023-01-12T13:44:31.587Z,10.40
2023-01-12T13:47:09.327Z,10.30
2023-01-12T13:49:48.812Z,10.40
2023-01-12T13:52:32.033Z,10.40
2023-01-12T13:55:00.973Z,10.40
2023-01-12T13:57:32.142Z,10.40
2023-01-12T14:00:04.863Z,10.30
2023-01-12T14:02:33.933Z,10.20
2023-01-12T14:05:23.253Z,10.10
2023-01-12T14:08:11.449Z,9.90
2023-01-12T14:10:48.000Z,9.80
2023-01-12T14:13:55.814Z,9.80
2023-01-12T14:16:41.906Z,9.80
2023-01-12T14:19:30.112Z,9.70
2023-01-12T14:22:03.335Z,9.70
2023-01-12T14:24:32.738Z,9.80
2023-01-12T14:27:00.747Z,9.90
2023-01-12T14:29:28.859Z,10.00
2023-01-12T14:31:57.017Z,10.00
2023-01-12T14:34:32.685Z,10.00
2023-01-12T14:37:02.368Z,10.00
2023-01-12T14:39:40.927Z,10.10
2023-01-12T14:42:36.736Z,10.10
2023-01-12T14:45:42.161Z,10.20
2023-01-12T14:48:28.712Z,10.20
2023-01-12T14:51:18.097Z,10.30
2023-01-12T14:53:49.023Z,10.40
2023-01-12T14:56:23.416Z,10.40
2023-01-12T14:58:52.206Z,10.40
2023-01-12T15:01:34.158Z,10.50
2023-01-12T15:04:03.696Z,10.40
2023-01-12T15:06:38.076Z,10.50
2023-01-12T15:09:10.841Z,10.40
2023-01-12T15:11:40.253Z,10.40
2023-01-12T15:14:24.958Z,10.50
2023-01-12T15:17:11.026Z,10.50
2023-01-12T15:19:57.199Z,10.60
2023-01-12T15:22:46.476Z,10.60
2023-01-12T15:25:35.163Z,10.60
2023-01-12T15:28:07.531Z,10.60
2023-01-12T15:30:39.503Z,10.60
2023-01-12T15:33:08.742Z,10.60
2023-01-12T15:35:42.324Z,10.60
2023-01-12T15:38:14.346Z,10.60
2023-01-12T15:40:42.490Z,10.60
2023-01-12T15:43:15.950Z,10.70
2023-01-12T15:45:46.620Z,10.70
2023-01-12T15:48:15.235Z,10.60
2023-01-12T15:50:46.529Z,10.60
2023-01-12T15:53:19.199Z,10.50
2023-01-12T15:55:48.014Z,10.40
2023-01-12T15:58:19.505Z,10.40
2023-01-12T16:00:48.006Z,10.40
2023-01-12T16:03:49.027Z,10.50
2023-01-12T16:06:04.989Z,10.50
2023-01-12T16:08:33.356Z,10.60
2023-01-12T16:11:12.038Z,10.60
2023-01-12T16:13:42.120Z,10.50
2023-01-12T16:16:16.938Z,10.60
2023-01-12T16:18:45.485Z,10.70
2023-01-12T16:21:17.500Z,10.60
2023-01-12T16:23:45.608Z,10.70
2023-01-12T16:26:13.766Z,10.70
2023-01-12T16:28:43.440Z,10.70
2023-01-12T16:31:14.458Z,10.60
2023-01-12T16:33:44.463Z,10.70
2023-01-12T16:36:15.614Z,10.70
2023-01-12T16:38:43.797Z,10.60
2023-01-12T16:41:19.924Z,10.70
2023-01-12T16:43:49.575Z,10.70
2023-01-12T16:46:18.445Z,10.60
2023-01-12T16:48:46.699Z,10.50
2023-01-12T16:51:16.765Z,10.60
2023-01-12T16:53:46.583Z,10.70
2023-01-12T16:56:17.600Z,10.60
2023-01-12T16:58:48.259Z,10.70
2023-01-12T17:01:23.421Z,10.70
2023-01-12T17:03:53.711Z,10.70
2023-01-12T17:06:22.843Z,10.70
2023-01-12T17:08:50.958Z,10.40
2023-01-12T17:11:20.556Z,10.30
2023-01-12T17:13:53.200Z,10.30
2023-01-12T17:16:25.104Z,10.30
2023-01-12T17:18:53.675Z,10.20
2023-01-12T17:21:22.792Z,10.20
2023-01-12T17:23:50.984Z,10.30
2023-01-12T17:26:19.993Z,10.30
2023-01-12T17:28:51.725Z,10.30
2023-01-12T17:31:22.322Z,10.50
2023-01-12T17:33:51.870Z,10.30
2023-01-12T17:36:19.970Z,10.10
2023-01-12T17:38:48.049Z,10.00
2023-01-12T17:41:33.968Z,10.10
2023-01-12T17:44:05.197Z,10.10
2023-01-12T17:46:35.431Z,10.20
2023-01-12T17:49:07.524Z,10.20
2023-01-12T17:51:36.480Z,10.20
2023-01-12T17:54:07.894Z,10.30
2023-01-12T17:56:36.540Z,10.20
2023-01-12T17:59:06.376Z,10.20
2023-01-12T18:01:38.008Z,10.20
2023-01-12T18:04:06.325Z,10.20
2023-01-12T18:06:34.671Z,10.20
2023-01-12T18:09:02.738Z,10.20
2023-01-12T18:11:31.817Z,10.20
2023-01-12T18:14:01.689Z,10.30
2023-01-12T18:16:30.785Z,10.30
2023-01-12T18:19:04.492Z,10.30
2023-01-12T18:21:33.977Z,10.20
2023-01-12T18:24:02.777Z,10.20
2023-01-12T18:26:35.958Z,10.20
2023-01-12T18:29:06.741Z,10.20
2023-01-12T18:31:37.484Z,10.30
2023-01-12T18:34:08.730Z,10.20
2023-01-12T18:36:39.732Z,10.30
2023-01-12T18:39:12.476Z,10.20
2023-01-12T18:41:58.071Z,10.20
2023-01-12T18:44:26.502Z,10.10
2023-01-12T18:47:13.037Z,10.00
2023-01-12T18:49:44.191Z,9.90
2023-01-12T18:52:37.962Z,9.90
2023-01-12T18:55:07.637Z,10.00
2023-01-12T18:57:36.720Z,10.00
2023-01-12T19:00:14.918Z,9.90
2023-01-12T19:02:43.425Z,9.90
2023-01-12T19:05:20.522Z,9.90
2023-01-12T19:08:04.500Z,10.00
2023-01-12T19:10:34.674Z,10.00
2023-01-12T19:13:20.469Z,9.90
2023-01-12T19:16:06.421Z,9.90
2023-01-12T19:18:36.922Z,10.00
2023-01-12T19:21:27.689Z,10.00
2023-01-12T19:24:13.970Z,10.10
2023-01-12T19:27:00.090Z,10.10
2023-01-12T19:29:28.309Z,10.30
2023-01-12T19:31:57.231Z,10.30
2023-01-12T19:34:26.317Z,10.30
2023-01-12T19:37:09.233Z,10.30
2023-01-12T19:39:59.584Z,10.30
2023-01-12T19:42:47.044Z,10.30
2023-01-12T19:45:15.935Z,10.30
2023-01-12T19:47:44.132Z,10.50
2023-01-12T19:50:14.623Z,10.50
2023-01-12T19:52:50.170Z,10.40
2023-01-12T19:55:18.329Z,10.40
2023-01-12T19:57:46.536Z,10.20
2023-01-12T20:00:17.679Z,10.10
2023-01-12T20:02:46.551Z,10.00
2023-01-12T20:05:21.875Z,10.00
2023-01-12T20:07:53.362Z,9.90
2023-01-12T20:10:23.399Z,9.80
2023-01-12T20:12:52.637Z,9.80
2023-01-12T20:15:21.902Z,9.80
2023-01-12T20:17:50.782Z,9.80
2023-01-12T20:20:19.939Z,9.80
2023-01-12T20:22:51.882Z,9.90
2023-01-12T20:25:20.706Z,9.80
2023-01-12T20:27:50.087Z,9.70
2023-01-12T20:30:36.442Z,9.70
2023-01-12T20:33:05.801Z,9.70
2023-01-12T20:35:34.891Z,9.70
2023-01-12T20:38:06.762Z,9.70
2023-01-12T20:40:35.217Z,9.70
2023-01-12T20:43:03.264Z,9.70
2023-01-12T20:45:31.326Z,9.60
2023-01-12T20:47:59.347Z,9.60
2023-01-12T20:50:28.105Z,9.60
2023-01-12T20:52:56.143Z,9.60
2023-01-12T20:55:25.636Z,9.60
2023-01-12T20:57:53.956Z,9.50
2023-01-12T21:00:22.122Z,9.50
2023-01-12T21:02:50.193Z,9.50
2023-01-12T21:05:18.263Z,9.50
2023-01-12T21:07:47.487Z,9.50
2023-01-12T21:10:17.400Z,9.50
2023-01-12T21:12:47.359Z,9.50
2023-01-12T21:15:15.756Z,9.50
2023-01-12T21:17:43.932Z,9.50
2023-01-12T21:20:14.619Z,9.50
2023-01-12T21:22:42.643Z,9.50
2023-01-12T21:25:10.866Z,9.50
2023-01-12T21:27:38.902Z,9.50
2023-01-12T21:30:11.919Z,9.50
2023-01-12T21:32:40.644Z,9.50
2023-01-12T21:35:09.841Z,9.50
2023-01-12T21:37:38.071Z,9.50
2023-01-12T21:40:07.650Z,9.60
2023-01-12T21:42:53.218Z,9.60
2023-01-12T21:45:26.240Z,9.60
2023-01-12T21:47:55.859Z,9.60
2023-01-12T21:50:24.046Z,9.70
2023-01-12T21:52:52.048Z,9.70
2023-01-12T21:55:20.133Z,9.70
2023-01-12T21:57:48.222Z,9.80
2023-01-12T22:00:17.544Z,9.70
2023-01-12T22:02:47.009Z,9.80
2023-01-12T22:05:16.545Z,9.80
2023-01-12T22:07:44.839Z,9.70
2023-01-12T22:10:25.401Z,9.70
2023-01-12T22:12:56.980Z,9.70
2023-01-12T22:15:27.205Z,9.70
2023-01-12T22:17:57.159Z,9.70
2023-01-12T22:20:25.479Z,9.70
2023-01-12T22:22:55.696Z,9.60
2023-01-12T22:25:24.138Z,9.60
2023-01-12T22:27:52.235Z,9.60
2023-01-12T22:30:25.302Z,9.60
2023-01-12T22:32:56.253Z,9.60
2023-01-12T22:35:26.400Z,9.60
2023-01-12T22:37:54.637Z,9.60
2023-01-12T22:40:22.704Z,9.60
2023-01-12T22:43:10.406Z,9.60
2023-01-12T22:45:38.311Z,9.60
2023-01-12T22:48:08.297Z,9.60
2023-01-12T22:50:36.384Z,9.60
2023-01-12T22:53:04.441Z,9.70
2023-01-12T22:55:32.505Z,9.70
2023-01-12T22:58:00.723Z,9.70
2023-01-12T23:00:29.243Z,9.70
2023-01-12T23:03:03.677Z,9.70
2023-01-12T23:05:36.483Z,9.80
2023-01-12T23:08:06.850Z,9.80
2023-01-12T23:10:35.751Z,9.80
2023-01-12T23:13:17.775Z,9.70
2023-01-12T23:15:50.020Z,9.70
2023-01-12T23:18:22.124Z,9.60
2023-01-12T23:20:51.829Z,9.60
2023-01-12T23:23:19.975Z,9.70
2023-01-12T23:25:49.021Z,9.70
2023-01-12T23:28:17.471Z,9.70
2023-01-12T23:30:45.915Z,9.70
2023-01-12T23:33:14.264Z,9.60
2023-01-12T23:35:43.839Z,9.60
2023-01-12T23:38:17.171Z,9.70
2023-01-12T23:40:45.470Z,9.70
2023-01-12T23:43:13.770Z,9.60
2023-01-12T23:45:41.939Z,9.60
2023-01-12T23:48:10.194Z,9.60
2023-01-12T23:50:38.368Z,9.70
2023-01-12T23:53:06.971Z,9.60
2023-01-12T23:55:40.225Z,9.60
2023-01-12T23:58:08.520Z,9.60
